Time,TemperatureF,DewpointF,PressureIn,WindDirection,WindDirectionDegrees,WindSpeedMPH,WindSpeedGustMPH,Humidity,HourlyPrecipIn,Conditions,Clouds,dailyrainin,SoftwareType,DateUTC
2013-10-27 00:01:00,46.8,39.9,30.06,North,0,0.0,0.0,77,0.00,,,0.00,meteohub,2013-10-27 04:01:00,
2013-10-27 00:02:00,46.8,39.9,30.06,North,0,0.0,0.0,77,0.00,,,0.00,meteohub,2013-10-27 04:02:00,
2013-10-27 00:04:00,46.8,39.9,30.06,North,0,0.0,0.0,77,0.00,,,0.00,meteohub,2013-10-27 04:04:00,
2013-10-27 00:07:00,46.8,39.9,30.06,North,0,0.0,0.0,77,0.00,,,0.00,meteohub,2013-10-27 04:07:00,
2013-10-27 00:12:00,46.8,39.6,30.06,North,0,0.0,0.0,76,0.00,,,0.00,meteohub,2013-10-27 04:12:00,
2013-10-27 00:17:00,46.8,39.6,30.06,North,0,1.0,0.0,76,0.00,,,0.00,meteohub,2013-10-27 04:17:00,
2013-10-27 00:22:00,46.9,39.7,30.05,North,0,0.0,1.0,76,0.00,,,0.00,meteohub,2013-10-27 04:22:00,
2013-10-27 00:28:00,46.9,40.1,30.05,North,0,0.0,1.0,77,0.00,,,0.00,meteohub,2013-10-27 04:28:00,
2013-10-27 00:34:00,46.9,40.1,30.05,North,0,2.0,2.0,77,0.00,,,0.00,meteohub,2013-10-27 04:34:00,
2013-10-27 00:40:00,46.9,40.1,30.05,North,0,0.0,1.0,77,0.00,,,0.00,meteohub,2013-10-27 04:40:00,
2013-10-27 00:46:00,46.8,39.6,30.05,North,0,0.0,2.0,76,0.00,,,0.00,meteohub,2013-10-27 04:46:00,
2013-10-27 00:52:00,46.8,39.6,30.05,North,0,0.0,1.0,76,0.00,,,0.00,meteohub,2013-10-27 04:52:00,
2013-10-27 00:57:00,46.8,39.6,30.04,North,0,1.0,2.0,76,0.00,,,0.00,meteohub,2013-10-27 04:57:00,
2013-10-27 01:02:00,46.8,39.6,30.04,North,0,0.0,2.0,76,0.00,,,0.00,meteohub,2013-10-27 05:02:00,
2013-10-27 01:07:00,46.8,39.6,30.04,North,0,0.0,2.0,76,0.00,,,0.00,meteohub,2013-10-27 05:07:00,
2013-10-27 01:12:00,46.8,39.6,30.04,North,0,1.0,2.0,76,0.00,,,0.00,meteohub,2013-10-27 05:12:00,
2013-10-27 01:17:00,46.8,39.6,30.04,North,0,0.0,2.0,76,0.00,,,0.00,meteohub,2013-10-27 05:17:00,
2013-10-27 01:22:00,46.8,39.6,30.04,North,0,0.0,2.0,76,0.00,,,0.00,meteohub,2013-10-27 05:22:00,
2013-10-27 01:27:00,46.9,39.7,30.05,North,0,2.0,2.0,76,0.00,,,0.00,meteohub,2013-10-27 05:27:00,
2013-10-27 01:32:00,46.9,39.7,30.05,North,0,1.0,2.0,76,0.00,,,0.00,meteohub,2013-10-27 05:32:00,
2013-10-27 01:37:00,46.8,39.6,30.05,North,0,0.0,2.0,76,0.00,,,0.00,meteohub,2013-10-27 05:37:00,
2013-10-27 01:42:00,46.4,38.8,30.05,North,0,0.0,2.0,75,0.00,,,0.00,meteohub,2013-10-27 05:42:00,
2013-10-27 01:47:00,46.0,38.5,30.05,North,0,0.0,1.0,75,0.00,,,0.00,meteohub,2013-10-27 05:47:00,
2013-10-27 01:52:00,45.9,38.3,30.05,North,0,0.0,0.0,75,0.00,,,0.00,meteohub,2013-10-27 05:52:00,
2013-10-27 01:57:00,45.3,37.9,30.04,North,0,0.0,0.0,75,0.00,,,0.00,meteohub,2013-10-27 05:57:00,
2013-10-27 02:02:00,45.0,38.1,30.05,North,0,1.0,1.0,77,0.00,,,0.00,meteohub,2013-10-27 06:02:00,
2013-10-27 02:07:00,44.6,38.5,30.05,North,0,2.0,2.0,79,0.00,,,0.00,meteohub,2013-10-27 06:07:00,
2013-10-27 02:12:00,44.2,38.5,30.05,North,0,0.0,2.0,80,0.00,,,0.00,meteohub,2013-10-27 06:12:00,
2013-10-27 02:17:00,43.7,37.9,30.05,North,0,0.0,2.0,80,0.00,,,0.00,meteohub,2013-10-27 06:17:00,
2013-10-27 02:22:00,43.5,38.1,30.06,North,0,0.0,2.0,81,0.00,,,0.00,meteohub,2013-10-27 06:22:00,
2013-10-27 02:27:00,43.2,38.1,30.05,North,0,1.0,2.0,82,0.00,,,0.00,meteohub,2013-10-27 06:27:00,
2013-10-27 02:32:00,42.8,37.8,30.05,North,0,1.0,2.0,82,0.00,,,0.00,meteohub,2013-10-27 06:32:00,
2013-10-27 02:37:00,42.8,37.9,30.05,North,0,0.0,2.0,83,0.00,,,0.00,meteohub,2013-10-27 06:37:00,
2013-10-27 02:42:00,42.4,37.6,30.05,North,0,1.0,2.0,83,0.00,,,0.00,meteohub,2013-10-27 06:42:00,
2013-10-27 02:47:00,42.3,37.8,30.05,North,0,1.0,2.0,84,0.00,,,0.00,meteohub,2013-10-27 06:47:00,
2013-10-27 02:53:00,42.1,37.6,30.04,North,0,0.0,1.0,84,0.00,,,0.00,meteohub,2013-10-27 06:53:00,
2013-10-27 02:59:00,41.9,37.4,30.05,North,0,0.0,1.0,84,0.00,,,0.00,meteohub,2013-10-27 06:59:00,
2013-10-27 03:05:00,41.9,37.8,30.04,North,0,0.0,1.0,85,0.00,,,0.00,meteohub,2013-10-27 07:05:00,
2013-10-27 03:11:00,41.7,37.6,30.04,North,0,0.0,0.0,85,0.00,,,0.00,meteohub,2013-10-27 07:11:00,
2013-10-27 03:17:00,41.7,37.8,30.04,North,0,0.0,0.0,86,0.00,,,0.00,meteohub,2013-10-27 07:17:00,
2013-10-27 03:22:00,41.7,37.8,30.04,North,0,0.0,1.0,86,0.00,,,0.00,meteohub,2013-10-27 07:22:00,
2013-10-27 03:27:00,41.7,37.8,30.04,North,0,0.0,1.0,86,0.00,,,0.00,meteohub,2013-10-27 07:27:00,
2013-10-27 03:32:00,41.7,38.1,30.04,North,0,0.0,1.0,87,0.00,,,0.00,meteohub,2013-10-27 07:32:00,
2013-10-27 03:37:00,41.7,38.1,30.04,North,0,0.0,0.0,87,0.00,,,0.00,meteohub,2013-10-27 07:37:00,
2013-10-27 03:42:00,41.7,38.1,30.04,North,0,0.0,0.0,87,0.00,,,0.00,meteohub,2013-10-27 07:42:00,
2013-10-27 03:47:00,41.7,38.5,30.04,North,0,1.0,0.0,88,0.00,,,0.00,meteohub,2013-10-27 07:47:00,
2013-10-27 03:53:00,41.7,38.5,30.04,North,0,0.0,1.0,88,0.00,,,0.00,meteohub,2013-10-27 07:53:00,
2013-10-27 03:59:00,41.5,38.3,30.04,North,0,0.0,1.0,88,0.00,,,0.00,meteohub,2013-10-27 07:59:00,
2013-10-27 04:05:00,41.5,38.3,30.04,North,0,1.0,1.0,88,0.00,,,0.00,meteohub,2013-10-27 08:05:00,
2013-10-27 04:11:00,41.4,38.3,30.03,North,0,0.0,1.0,89,0.00,,,0.00,meteohub,2013-10-27 08:11:00,
2013-10-27 04:17:00,41.2,38.1,30.04,North,0,0.0,1.0,89,0.00,,,0.00,meteohub,2013-10-27 08:17:00,
2013-10-27 04:22:00,41.2,38.1,30.04,North,0,0.0,1.0,89,0.00,,,0.00,meteohub,2013-10-27 08:22:00,
2013-10-27 04:27:00,41.0,38.3,30.03,North,0,2.0,2.0,90,0.00,,,0.00,meteohub,2013-10-27 08:27:00,
2013-10-27 04:32:00,40.8,37.8,30.03,North,0,0.0,2.0,89,0.00,,,0.00,meteohub,2013-10-27 08:32:00,
2013-10-27 04:37:00,40.6,37.9,30.04,North,0,2.0,2.0,90,0.00,,,0.00,meteohub,2013-10-27 08:37:00,
2013-10-27 04:42:00,40.6,38.3,30.04,North,0,0.0,2.0,91,0.00,,,0.00,meteohub,2013-10-27 08:42:00,
2013-10-27 04:47:00,40.6,37.9,30.03,North,0,0.0,2.0,90,0.00,,,0.00,meteohub,2013-10-27 08:47:00,
2013-10-27 04:53:00,40.6,38.3,30.03,North,0,0.0,2.0,91,0.00,,,0.00,meteohub,2013-10-27 08:53:00,
2013-10-27 04:59:00,40.8,38.5,30.04,North,0,1.0,1.0,91,0.00,,,0.00,meteohub,2013-10-27 08:59:00,
2013-10-27 05:05:00,40.8,38.5,30.04,North,0,1.0,1.0,91,0.00,,,0.00,meteohub,2013-10-27 09:05:00,
2013-10-27 05:11:00,41.0,38.7,30.04,North,0,0.0,1.0,91,0.00,,,0.00,meteohub,2013-10-27 09:11:00,
2013-10-27 05:17:00,41.0,38.7,30.04,North,0,0.0,1.0,91,0.00,,,0.00,meteohub,2013-10-27 09:17:00,
2013-10-27 05:22:00,40.8,38.5,30.04,North,0,1.0,1.0,91,0.00,,,0.00,meteohub,2013-10-27 09:22:00,
2013-10-27 05:27:00,40.8,38.5,30.04,North,0,1.0,1.0,91,0.00,,,0.00,meteohub,2013-10-27 09:27:00,
2013-10-27 05:32:00,40.6,38.5,30.04,North,0,0.0,1.0,92,0.00,,,0.00,meteohub,2013-10-27 09:32:00,
2013-10-27 05:37:00,40.6,38.5,30.04,North,0,0.0,1.0,92,0.00,,,0.00,meteohub,2013-10-27 09:37:00,
2013-10-27 05:42:00,40.3,38.1,30.05,North,0,0.0,1.0,92,0.00,,,0.00,meteohub,2013-10-27 09:42:00,
2013-10-27 05:47:00,40.1,37.9,30.05,North,0,0.0,0.0,92,0.00,,,0.00,meteohub,2013-10-27 09:47:00,
2013-10-27 05:52:00,39.7,37.6,30.04,North,0,0.0,0.0,92,0.00,,,0.00,meteohub,2013-10-27 09:52:00,
2013-10-27 05:57:00,39.6,37.4,30.05,North,0,0.0,0.0,92,0.00,,,0.00,meteohub,2013-10-27 09:57:00,
2013-10-27 06:02:00,39.4,37.2,30.05,North,0,0.0,0.0,92,0.00,,,0.00,meteohub,2013-10-27 10:02:00,
2013-10-27 06:07:00,39.4,37.2,30.04,North,0,0.0,0.0,92,0.00,,,0.00,meteohub,2013-10-27 10:07:00,
2013-10-27 06:12:00,38.7,36.5,30.04,North,0,0.0,0.0,92,0.00,,,0.00,meteohub,2013-10-27 10:12:00,
2013-10-27 06:17:00,38.3,36.1,30.05,North,0,0.0,0.0,92,0.00,,,0.00,meteohub,2013-10-27 10:17:00,
2013-10-27 06:22:00,38.1,36.0,30.04,North,0,0.0,0.0,92,0.00,,,0.00,meteohub,2013-10-27 10:22:00,
2013-10-27 06:27:00,37.9,36.1,30.05,North,0,0.0,0.0,93,0.00,,,0.00,meteohub,2013-10-27 10:27:00,
2013-10-27 06:32:00,37.9,36.1,30.05,North,0,0.0,0.0,93,0.00,,,0.00,meteohub,2013-10-27 10:32:00,
2013-10-27 06:37:00,37.8,36.0,30.05,North,0,0.0,0.0,93,0.00,,,0.00,meteohub,2013-10-27 10:37:00,
2013-10-27 06:42:00,37.6,35.8,30.05,North,0,0.0,0.0,93,0.00,,,0.00,meteohub,2013-10-27 10:42:00,
2013-10-27 06:47:00,37.4,35.6,30.05,North,0,0.0,0.0,93,0.00,,,0.00,meteohub,2013-10-27 10:47:00,
2013-10-27 06:52:00,37.2,35.4,30.05,North,0,2.0,0.0,93,0.00,,,0.00,meteohub,2013-10-27 10:52:00,
2013-10-27 06:57:00,37.0,35.2,30.05,North,0,0.0,2.0,93,0.00,,,0.00,meteohub,2013-10-27 10:57:00,
2013-10-27 07:02:00,37.0,35.2,30.05,North,0,0.0,2.0,93,0.00,,,0.00,meteohub,2013-10-27 11:02:00,
2013-10-27 07:07:00,37.0,35.2,30.05,North,0,0.0,2.0,93,0.00,,,0.00,meteohub,2013-10-27 11:07:00,
2013-10-27 07:12:00,36.7,35.1,30.05,North,0,2.0,2.0,94,0.00,,,0.00,meteohub,2013-10-27 11:12:00,
2013-10-27 07:17:00,36.7,35.1,30.06,North,0,1.0,2.0,94,0.00,,,0.00,meteohub,2013-10-27 11:17:00,
2013-10-27 07:22:00,36.7,35.1,30.06,North,0,1.0,2.0,94,0.00,,,0.00,meteohub,2013-10-27 11:22:00,
2013-10-27 07:27:00,36.5,34.9,30.06,North,0,1.0,2.0,94,0.00,,,0.00,meteohub,2013-10-27 11:27:00,
2013-10-27 07:32:00,36.5,34.9,30.06,North,0,2.0,2.0,94,0.00,,,0.00,meteohub,2013-10-27 11:32:00,
2013-10-27 07:37:00,36.5,35.2,30.06,North,0,2.0,2.0,95,0.00,,,0.00,meteohub,2013-10-27 11:37:00,
2013-10-27 07:42:00,36.5,35.2,30.06,North,0,1.0,2.0,95,0.00,,,0.00,meteohub,2013-10-27 11:42:00,
2013-10-27 07:47:00,36.5,35.2,30.06,North,0,0.0,2.0,95,0.00,,,0.00,meteohub,2013-10-27 11:47:00,
2013-10-27 07:54:00,36.5,35.2,30.06,North,0,0.0,2.0,95,0.00,,,0.00,meteohub,2013-10-27 11:54:00,
2013-10-27 08:00:00,36.7,35.4,30.06,North,0,2.0,2.0,95,0.00,,,0.00,meteohub,2013-10-27 12:00:00,
2013-10-27 08:06:00,36.9,35.6,30.07,North,0,1.0,2.0,95,0.00,,,0.00,meteohub,2013-10-27 12:06:00,
2013-10-27 08:12:00,37.0,35.8,30.08,North,0,0.0,2.0,95,0.00,,,0.00,meteohub,2013-10-27 12:12:00,
2013-10-27 08:17:00,37.0,35.8,30.08,North,0,1.0,2.0,95,0.00,,,0.00,meteohub,2013-10-27 12:17:00,
2013-10-27 08:22:00,37.2,36.1,30.08,North,0,1.0,2.0,96,0.00,,,0.00,meteohub,2013-10-27 12:22:00,
2013-10-27 08:27:00,37.8,36.7,30.08,North,0,1.0,1.0,96,0.00,,,0.00,meteohub,2013-10-27 12:27:00,
2013-10-27 08:32:00,37.9,36.9,30.09,North,0,1.0,2.0,96,0.00,,,0.00,meteohub,2013-10-27 12:32:00,
2013-10-27 08:37:00,38.3,37.2,30.09,North,0,2.0,2.0,96,0.00,,,0.00,meteohub,2013-10-27 12:37:00,
2013-10-27 08:42:00,38.5,37.8,30.09,North,0,0.0,2.0,97,0.00,,,0.00,meteohub,2013-10-27 12:42:00,
2013-10-27 08:47:00,39.0,38.3,30.09,North,0,1.0,2.0,97,0.00,,,0.00,meteohub,2013-10-27 12:47:00,
2013-10-27 08:52:00,39.6,38.8,30.09,North,0,0.0,2.0,97,0.00,,,0.00,meteohub,2013-10-27 12:52:00,
2013-10-27 08:57:00,40.1,39.4,30.09,North,0,1.0,1.0,97,0.00,,,0.00,meteohub,2013-10-27 12:57:00,
2013-10-27 09:02:00,40.8,40.1,30.10,North,0,1.0,1.0,97,0.00,,,0.00,meteohub,2013-10-27 13:02:00,
2013-10-27 09:07:00,41.7,41.2,30.10,NW,315,2.0,2.0,98,0.00,,,0.00,meteohub,2013-10-27 13:07:00,
2013-10-27 09:12:00,43.3,42.8,30.10,South,180,2.0,2.0,98,0.00,,,0.00,meteohub,2013-10-27 13:12:00,
2013-10-27 09:17:00,45.3,44.2,30.10,West,270,1.0,3.0,96,0.00,,,0.00,meteohub,2013-10-27 13:17:00,
2013-10-27 09:22:00,46.6,45.0,30.11,NE,45,0.0,4.0,94,0.00,,,0.00,meteohub,2013-10-27 13:22:00,
2013-10-27 09:27:00,47.8,45.0,30.11,NE,45,2.0,4.0,90,0.00,,,0.00,meteohub,2013-10-27 13:27:00,
2013-10-27 09:32:00,48.9,44.6,30.11,SW,225,2.0,5.0,85,0.00,,,0.00,meteohub,2013-10-27 13:32:00,
2013-10-27 09:37:00,50.0,44.8,30.11,North,0,2.0,5.0,82,0.00,,,0.00,meteohub,2013-10-27 13:37:00,
2013-10-27 09:43:00,51.1,44.4,30.11,North,0,2.0,5.0,78,0.00,,,0.00,meteohub,2013-10-27 13:43:00,
2013-10-27 09:49:00,51.8,43.7,30.11,North,0,4.0,7.0,74,0.00,,,0.00,meteohub,2013-10-27 13:49:00,
2013-10-27 09:55:00,52.7,42.8,30.11,NW,315,3.0,7.0,69,0.00,,,0.00,meteohub,2013-10-27 13:55:00,
2013-10-27 10:01:00,53.6,42.4,30.11,NE,45,3.0,5.0,66,0.00,,,0.00,meteohub,2013-10-27 14:01:00,
2013-10-27 10:07:00,54.1,42.3,30.11,SE,135,2.0,5.0,64,0.00,,,0.00,meteohub,2013-10-27 14:07:00,
2013-10-27 10:12:00,54.7,42.8,30.11,NE,45,3.0,5.0,64,0.00,,,0.00,meteohub,2013-10-27 14:12:00,
2013-10-27 10:17:00,55.2,42.4,30.11,West,270,2.0,7.0,62,0.00,,,0.00,meteohub,2013-10-27 14:17:00,
2013-10-27 10:22:00,55.9,41.9,30.11,West,270,4.0,7.0,59,0.00,,,0.00,meteohub,2013-10-27 14:22:00,
2013-10-27 10:27:00,56.5,42.3,30.11,NE,45,6.0,7.0,59,0.00,,,0.00,meteohub,2013-10-27 14:27:00,
2013-10-27 10:32:00,57.2,41.7,30.12,NE,45,7.0,7.0,56,0.00,,,0.00,meteohub,2013-10-27 14:32:00,
2013-10-27 10:37:00,57.7,41.2,30.12,West,270,3.0,7.0,54,0.00,,,0.00,meteohub,2013-10-27 14:37:00,
2013-10-27 10:43:00,58.5,40.8,30.11,West,270,2.0,7.0,52,0.00,,,0.00,meteohub,2013-10-27 14:43:00,
2013-10-27 10:49:00,59.4,41.2,30.11,North,0,4.0,7.0,51,0.00,,,0.00,meteohub,2013-10-27 14:49:00,
2013-10-27 10:55:00,60.1,40.3,30.11,North,0,6.0,6.0,48,0.00,,,0.00,meteohub,2013-10-27 14:55:00,
2013-10-27 11:01:00,60.4,39.6,30.11,NE,45,2.0,6.0,46,0.00,,,0.00,meteohub,2013-10-27 15:01:00,
2013-10-27 11:07:00,61.2,41.4,30.11,North,0,4.0,8.0,48,0.00,,,0.00,meteohub,2013-10-27 15:07:00,
2013-10-27 11:12:00,61.3,39.2,30.11,West,270,4.0,8.0,44,0.00,,,0.00,meteohub,2013-10-27 15:12:00,
2013-10-27 11:17:00,61.9,39.2,30.11,SW,225,4.0,6.0,43,0.00,,,0.00,meteohub,2013-10-27 15:17:00,
2013-10-27 11:22:00,62.2,37.6,30.12,SW,225,3.0,6.0,40,0.00,,,0.00,meteohub,2013-10-27 15:22:00,
2013-10-27 11:27:00,62.8,39.9,30.11,North,0,2.0,5.0,43,0.00,,,0.00,meteohub,2013-10-27 15:27:00,
2013-10-27 11:35:00,63.5,37.4,30.12,North,0,4.0,5.0,38,0.00,,,0.00,meteohub,2013-10-27 15:35:00,
2013-10-27 11:41:00,63.9,37.8,30.11,NE,45,5.0,5.0,38,0.00,,,0.00,meteohub,2013-10-27 15:41:00,
2013-10-27 11:47:00,64.0,38.7,30.11,NE,45,2.0,5.0,39,0.00,,,0.00,meteohub,2013-10-27 15:47:00,
2013-10-27 11:52:00,64.2,37.4,30.11,NNE,23,3.0,5.0,37,0.00,,,0.00,meteohub,2013-10-27 15:52:00,
2013-10-27 11:57:00,64.0,35.8,30.11,South,180,4.0,5.0,35,0.00,,,0.00,meteohub,2013-10-27 15:57:00,
2013-10-27 12:02:00,64.2,36.0,30.11,WSW,248,4.0,5.0,35,0.00,,,0.00,meteohub,2013-10-27 16:02:00,
2013-10-27 12:07:00,64.2,35.2,30.10,West,270,4.0,6.0,34,0.00,,,0.00,meteohub,2013-10-27 16:07:00,
2013-10-27 12:12:00,64.6,36.3,30.10,North,0,4.0,6.0,35,0.00,,,0.00,meteohub,2013-10-27 16:12:00,
2013-10-27 12:17:00,64.9,34.3,30.10,South,180,2.0,8.0,32,0.00,,,0.00,meteohub,2013-10-27 16:17:00,
2013-10-27 12:22:00,65.3,33.1,30.09,SE,135,3.0,8.0,30,0.00,,,0.00,meteohub,2013-10-27 16:22:00,
2013-10-27 12:27:00,65.3,35.4,30.09,South,180,3.0,8.0,33,0.00,,,0.00,meteohub,2013-10-27 16:27:00,
2013-10-27 12:32:00,64.9,33.6,30.09,NE,45,4.0,6.0,31,0.00,,,0.00,meteohub,2013-10-27 16:32:00,
2013-10-27 12:37:00,65.7,35.8,30.09,NW,315,2.0,6.0,33,0.00,,,0.00,meteohub,2013-10-27 16:37:00,
2013-10-27 12:42:00,66.6,35.1,30.09,SW,225,3.0,4.0,31,0.00,,,0.00,meteohub,2013-10-27 16:42:00,
2013-10-27 12:47:00,67.1,34.7,30.09,NW,315,5.0,5.0,30,0.00,,,0.00,meteohub,2013-10-27 16:47:00,
2013-10-27 12:53:00,66.2,33.8,30.08,NE,45,3.0,5.0,30,0.00,,,0.00,meteohub,2013-10-27 16:53:00,
2013-10-27 12:59:00,66.0,34.5,30.08,East,90,2.0,5.0,31,0.00,,,0.00,meteohub,2013-10-27 16:59:00,
2013-10-27 13:05:00,66.4,34.9,30.07,North,0,2.0,6.0,31,0.00,,,0.00,meteohub,2013-10-27 17:05:00,
2013-10-27 13:11:00,66.2,33.8,30.07,East,90,3.0,6.0,30,0.00,,,0.00,meteohub,2013-10-27 17:11:00,
2013-10-27 13:17:00,66.2,34.7,30.07,SW,225,3.0,4.0,31,0.00,,,0.00,meteohub,2013-10-27 17:17:00,
2013-10-27 13:22:00,65.8,32.7,30.06,SW,225,3.0,4.0,29,0.00,,,0.00,meteohub,2013-10-27 17:22:00,
2013-10-27 13:27:00,64.9,32.7,30.06,NNE,23,4.0,4.0,30,0.00,,,0.00,meteohub,2013-10-27 17:27:00,
2013-10-27 13:32:00,64.6,34.0,30.06,NE,45,2.0,4.0,32,0.00,,,0.00,meteohub,2013-10-27 17:32:00,
2013-10-27 13:37:00,64.6,34.9,30.06,NW,315,4.0,4.0,33,0.00,,,0.00,meteohub,2013-10-27 17:37:00,
2013-10-27 13:42:00,64.6,34.0,30.06,West,270,4.0,4.0,32,0.00,,,0.00,meteohub,2013-10-27 17:42:00,
2013-10-27 13:47:00,65.5,36.3,30.05,NW,315,4.0,4.0,34,0.00,,,0.00,meteohub,2013-10-27 17:47:00,
2013-10-27 13:52:00,66.2,34.7,30.06,North,0,4.0,4.0,31,0.00,,,0.00,meteohub,2013-10-27 17:52:00,
2013-10-27 13:57:00,65.8,34.3,30.05,NW,315,2.0,4.0,31,0.00,,,0.00,meteohub,2013-10-27 17:57:00,
2013-10-27 14:02:00,65.3,35.4,30.05,WSW,248,4.0,4.0,33,0.00,,,0.00,meteohub,2013-10-27 18:02:00,
2013-10-27 14:07:00,65.1,35.2,30.05,SE,135,2.0,5.0,33,0.00,,,0.00,meteohub,2013-10-27 18:07:00,
2013-10-27 14:12:00,65.1,36.9,30.05,West,270,2.0,7.0,35,0.00,,,0.00,meteohub,2013-10-27 18:12:00,
2013-10-27 14:17:00,65.5,34.0,30.05,SE,135,4.0,7.0,31,0.00,,,0.00,meteohub,2013-10-27 18:17:00,
2013-10-27 14:22:00,65.7,35.8,30.05,SE,135,2.0,7.0,33,0.00,,,0.00,meteohub,2013-10-27 18:22:00,
2013-10-27 14:27:00,66.2,36.3,30.05,SE,135,2.0,4.0,33,0.00,,,0.00,meteohub,2013-10-27 18:27:00,
2013-10-27 14:32:00,66.0,32.9,30.04,South,180,5.0,5.0,29,0.00,,,0.00,meteohub,2013-10-27 18:32:00,
2013-10-27 14:37:00,66.2,35.4,30.04,North,0,2.0,5.0,32,0.00,,,0.00,meteohub,2013-10-27 18:37:00,
2013-10-27 14:42:00,66.6,36.5,30.04,South,180,2.0,6.0,33,0.00,,,0.00,meteohub,2013-10-27 18:42:00,
2013-10-27 14:48:00,66.6,35.8,30.04,South,180,3.0,6.0,32,0.00,,,0.00,meteohub,2013-10-27 18:48:00,
2013-10-27 14:54:00,66.4,33.1,30.04,East,90,4.0,6.0,29,0.00,,,0.00,meteohub,2013-10-27 18:54:00,
2013-10-27 15:00:00,66.2,34.7,30.04,SE,135,3.0,5.0,31,0.00,,,0.00,meteohub,2013-10-27 19:00:00,
2013-10-27 15:06:00,66.0,35.2,30.04,NE,45,2.0,8.0,32,0.00,,,0.00,meteohub,2013-10-27 19:06:00,
2013-10-27 15:12:00,65.8,35.2,30.04,SW,225,3.0,8.0,32,0.00,,,0.00,meteohub,2013-10-27 19:12:00,
2013-10-27 15:17:00,65.8,33.6,30.04,North,0,2.0,5.0,30,0.00,,,0.00,meteohub,2013-10-27 19:17:00,
2013-10-27 15:22:00,66.2,33.8,30.04,West,270,1.0,5.0,30,0.00,,,0.00,meteohub,2013-10-27 19:22:00,
2013-10-27 15:27:00,66.2,34.7,30.04,North,0,3.0,4.0,31,0.00,,,0.00,meteohub,2013-10-27 19:27:00,
2013-10-27 15:32:00,65.7,31.6,30.04,NW,315,5.0,5.0,28,0.00,,,0.00,meteohub,2013-10-27 19:32:00,
2013-10-27 15:37:00,65.3,30.4,30.04,North,0,4.0,5.0,27,0.00,,,0.00,meteohub,2013-10-27 19:37:00,
2013-10-27 15:42:00,65.1,32.0,30.04,NW,315,5.0,5.0,29,0.00,,,0.00,meteohub,2013-10-27 19:42:00,
2013-10-27 15:47:00,65.1,32.0,30.04,SE,135,3.0,8.0,29,0.00,,,0.00,meteohub,2013-10-27 19:47:00,
2013-10-27 15:52:00,65.3,33.1,30.04,SW,225,1.0,8.0,30,0.00,,,0.00,meteohub,2013-10-27 19:52:00,
2013-10-27 15:57:00,65.3,33.1,30.04,North,0,2.0,8.0,30,0.00,,,0.00,meteohub,2013-10-27 19:57:00,
2013-10-27 16:02:00,65.1,32.0,30.04,SW,225,3.0,8.0,29,0.00,,,0.00,meteohub,2013-10-27 20:02:00,
2013-10-27 16:07:00,65.1,32.0,30.04,North,0,4.0,8.0,29,0.00,,,0.00,meteohub,2013-10-27 20:07:00,
2013-10-27 16:12:00,65.1,33.8,30.04,NE,45,2.0,8.0,31,0.00,,,0.00,meteohub,2013-10-27 20:12:00,
2013-10-27 16:17:00,65.3,34.7,30.04,NE,45,2.0,4.0,32,0.00,,,0.00,meteohub,2013-10-27 20:17:00,
2013-10-27 16:22:00,65.1,33.8,30.04,West,270,1.0,4.0,31,0.00,,,0.00,meteohub,2013-10-27 20:22:00,
2013-10-27 16:27:00,64.8,34.2,30.04,South,180,1.0,4.0,32,0.00,,,0.00,meteohub,2013-10-27 20:27:00,
2013-10-27 16:32:00,64.6,34.9,30.04,SW,225,1.0,4.0,33,0.00,,,0.00,meteohub,2013-10-27 20:32:00,
2013-10-27 16:37:00,64.2,34.5,30.04,East,90,2.0,2.0,33,0.00,,,0.00,meteohub,2013-10-27 20:37:00,
2013-10-27 16:42:00,64.0,34.3,30.04,NE,45,2.0,3.0,33,0.00,,,0.00,meteohub,2013-10-27 20:42:00,
2013-10-27 16:47:00,64.0,34.3,30.04,NE,45,1.0,3.0,33,0.00,,,0.00,meteohub,2013-10-27 20:47:00,
2013-10-27 16:52:00,63.9,34.9,30.04,West,270,0.0,3.0,34,0.00,,,0.00,meteohub,2013-10-27 20:52:00,
2013-10-27 16:57:00,63.9,34.2,30.04,North,0,2.0,3.0,33,0.00,,,0.00,meteohub,2013-10-27 20:57:00,
2013-10-27 17:02:00,64.0,34.3,30.04,West,270,4.0,4.0,33,0.00,,,0.00,meteohub,2013-10-27 21:02:00,
2013-10-27 17:07:00,63.9,35.6,30.04,SW,225,2.0,4.0,35,0.00,,,0.00,meteohub,2013-10-27 21:07:00,
2013-10-27 17:12:00,63.5,36.7,30.04,South,180,2.0,4.0,37,0.00,,,0.00,meteohub,2013-10-27 21:12:00,
2013-10-27 17:17:00,63.1,37.0,30.04,SW,225,2.0,4.0,38,0.00,,,0.00,meteohub,2013-10-27 21:17:00,
2013-10-27 17:22:00,62.8,36.9,30.04,West,270,3.0,3.0,38,0.00,,,0.00,meteohub,2013-10-27 21:22:00,
2013-10-27 17:27:00,62.6,37.2,30.05,West,270,1.0,3.0,39,0.00,,,0.00,meteohub,2013-10-27 21:27:00,
2013-10-27 17:32:00,62.1,37.4,30.04,West,270,0.0,3.0,40,0.00,,,0.00,meteohub,2013-10-27 21:32:00,
2013-10-27 17:37:00,61.5,38.8,30.04,West,270,0.0,3.0,43,0.00,,,0.00,meteohub,2013-10-27 21:37:00,
2013-10-27 17:42:00,60.8,38.7,30.05,West,270,0.0,1.0,44,0.00,,,0.00,meteohub,2013-10-27 21:42:00,
2013-10-27 17:47:00,60.3,41.5,30.04,West,270,0.0,1.0,50,0.00,,,0.00,meteohub,2013-10-27 21:47:00,
2013-10-27 17:52:00,59.4,42.8,30.05,West,270,1.0,1.0,54,0.00,,,0.00,meteohub,2013-10-27 21:52:00,
2013-10-27 17:58:00,58.1,43.0,30.04,West,270,1.0,1.0,57,0.00,,,0.00,meteohub,2013-10-27 21:58:00,
2013-10-27 18:04:00,56.8,42.6,30.04,West,270,1.0,1.0,59,0.00,,,0.00,meteohub,2013-10-27 22:04:00,
2013-10-27 18:10:00,55.8,42.4,30.05,West,270,1.0,1.0,61,0.00,,,0.00,meteohub,2013-10-27 22:10:00,
2013-10-27 18:16:00,54.9,42.4,30.05,West,270,1.0,1.0,63,0.00,,,0.00,meteohub,2013-10-27 22:16:00,
2013-10-27 18:22:00,54.1,42.6,30.05,West,270,1.0,1.0,65,0.00,,,0.00,meteohub,2013-10-27 22:22:00,
2013-10-27 18:27:00,53.6,42.4,30.05,West,270,1.0,1.0,66,0.00,,,0.00,meteohub,2013-10-27 22:27:00,
2013-10-27 18:32:00,53.1,42.4,30.05,West,270,1.0,1.0,67,0.00,,,0.00,meteohub,2013-10-27 22:32:00,
2013-10-27 18:37:00,52.5,42.3,30.05,West,270,1.0,1.0,68,0.00,,,0.00,meteohub,2013-10-27 22:37:00,
2013-10-27 18:42:00,52.0,42.1,30.06,West,270,0.0,1.0,69,0.00,,,0.00,meteohub,2013-10-27 22:42:00,
2013-10-27 18:47:00,51.4,42.4,30.06,West,270,0.0,1.0,71,0.00,,,0.00,meteohub,2013-10-27 22:47:00,
2013-10-27 18:53:00,50.7,41.4,30.06,West,270,0.0,1.0,70,0.00,,,0.00,meteohub,2013-10-27 22:53:00,
2013-10-27 18:59:00,50.2,41.2,30.06,West,270,0.0,1.0,71,0.00,,,0.00,meteohub,2013-10-27 22:59:00,
2013-10-27 19:05:00,49.6,41.0,30.06,West,270,0.0,1.0,72,0.00,,,0.00,meteohub,2013-10-27 23:05:00,
2013-10-27 19:11:00,49.5,41.5,30.07,West,270,0.0,0.0,74,0.00,,,0.00,meteohub,2013-10-27 23:11:00,
2013-10-27 19:17:00,48.4,40.5,30.07,West,270,0.0,0.0,74,0.00,,,0.00,meteohub,2013-10-27 23:17:00,
2013-10-27 19:22:00,47.8,40.3,30.07,West,270,0.0,0.0,75,0.00,,,0.00,meteohub,2013-10-27 23:22:00,
2013-10-27 19:27:00,47.5,40.3,30.07,West,270,0.0,0.0,76,0.00,,,0.00,meteohub,2013-10-27 23:27:00,
2013-10-27 19:32:00,47.1,40.3,30.07,West,270,0.0,0.0,77,0.00,,,0.00,meteohub,2013-10-27 23:32:00,
2013-10-27 19:37:00,46.8,39.9,30.08,West,270,0.0,0.0,77,0.00,,,0.00,meteohub,2013-10-27 23:37:00,
2013-10-27 19:42:00,46.4,39.6,30.08,West,270,0.0,0.0,77,0.00,,,0.00,meteohub,2013-10-27 23:42:00,
2013-10-27 19:47:00,46.0,39.9,30.08,West,270,2.0,0.0,79,0.00,,,0.00,meteohub,2013-10-27 23:47:00,
2013-10-27 19:52:00,45.9,39.7,30.08,West,270,0.0,2.0,79,0.00,,,0.00,meteohub,2013-10-27 23:52:00,
2013-10-27 19:57:00,45.5,39.4,30.08,West,270,0.0,2.0,79,0.00,,,0.00,meteohub,2013-10-27 23:57:00,
2013-10-27 20:02:00,45.3,39.2,30.08,West,270,0.0,2.0,79,0.00,,,0.00,meteohub,2013-10-28 00:02:00,
2013-10-27 20:08:00,45.1,39.7,30.08,West,270,2.0,2.0,81,0.00,,,0.00,meteohub,2013-10-28 00:08:00,
2013-10-27 20:14:00,44.8,39.6,30.09,West,270,1.0,2.0,82,0.00,,,0.00,meteohub,2013-10-28 00:14:00,
2013-10-27 20:20:00,44.6,39.4,30.09,West,270,0.0,2.0,82,0.00,,,0.00,meteohub,2013-10-28 00:20:00,
2013-10-27 20:26:00,44.2,39.4,30.09,West,270,0.0,1.0,83,0.00,,,0.00,meteohub,2013-10-28 00:26:00,
2013-10-27 20:32:00,44.1,39.6,30.08,West,270,0.0,0.0,84,0.00,,,0.00,meteohub,2013-10-28 00:32:00,
2013-10-27 20:37:00,43.9,39.4,30.09,West,270,0.0,0.0,84,0.00,,,0.00,meteohub,2013-10-28 00:37:00,
2013-10-27 20:42:00,43.7,39.2,30.09,West,270,0.0,0.0,84,0.00,,,0.00,meteohub,2013-10-28 00:42:00,
2013-10-27 20:47:00,43.5,39.0,30.09,West,270,0.0,0.0,84,0.00,,,0.00,meteohub,2013-10-28 00:47:00,
2013-10-27 20:52:00,43.7,39.2,30.09,West,270,0.0,0.0,84,0.00,,,0.00,meteohub,2013-10-28 00:52:00,
2013-10-27 20:57:00,43.3,39.2,30.09,West,270,0.0,0.0,85,0.00,,,0.00,meteohub,2013-10-28 00:57:00,
2013-10-27 21:02:00,43.3,39.2,30.09,West,270,0.0,0.0,85,0.00,,,0.00,meteohub,2013-10-28 01:02:00,
2013-10-27 21:07:00,43.2,39.0,30.09,West,270,0.0,0.0,85,0.00,,,0.00,meteohub,2013-10-28 01:07:00,
2013-10-27 21:12:00,43.2,39.2,30.09,West,270,0.0,0.0,86,0.00,,,0.00,meteohub,2013-10-28 01:12:00,
2013-10-27 21:17:00,43.0,39.0,30.09,West,270,0.0,0.0,86,0.00,,,0.00,meteohub,2013-10-28 01:17:00,
2013-10-27 21:22:00,42.8,38.8,30.09,West,270,0.0,0.0,86,0.00,,,0.00,meteohub,2013-10-28 01:22:00,
2013-10-27 21:27:00,42.8,39.2,30.09,West,270,0.0,0.0,87,0.00,,,0.00,meteohub,2013-10-28 01:27:00,
2013-10-27 21:32:00,42.4,38.8,30.10,West,270,1.0,0.0,87,0.00,,,0.00,meteohub,2013-10-28 01:32:00,
2013-10-27 21:37:00,42.4,38.8,30.09,West,270,1.0,1.0,87,0.00,,,0.00,meteohub,2013-10-28 01:37:00,
2013-10-27 21:42:00,42.3,38.7,30.10,West,270,0.0,1.0,87,0.00,,,0.00,meteohub,2013-10-28 01:42:00,
2013-10-27 21:47:00,42.1,38.5,30.10,West,270,0.0,1.0,87,0.00,,,0.00,meteohub,2013-10-28 01:47:00,
2013-10-27 21:52:00,42.1,38.8,30.11,West,270,0.0,1.0,88,0.00,,,0.00,meteohub,2013-10-28 01:52:00,
2013-10-27 21:57:00,41.9,38.7,30.11,West,270,0.0,0.0,88,0.00,,,0.00,meteohub,2013-10-28 01:57:00,
2013-10-27 22:03:00,41.7,38.5,30.11,West,270,0.0,0.0,88,0.00,,,0.00,meteohub,2013-10-28 02:03:00,
2013-10-27 22:09:00,41.7,38.5,30.11,West,270,1.0,0.0,88,0.00,,,0.00,meteohub,2013-10-28 02:09:00,
2013-10-27 22:15:00,41.7,38.7,30.12,West,270,0.0,1.0,89,0.00,,,0.00,meteohub,2013-10-28 02:15:00,
2013-10-27 22:21:00,41.5,38.5,30.12,West,270,0.0,1.0,89,0.00,,,0.00,meteohub,2013-10-28 02:21:00,
2013-10-27 22:27:00,41.4,38.3,30.12,West,270,1.0,1.0,89,0.00,,,0.00,meteohub,2013-10-28 02:27:00,
2013-10-27 22:32:00,41.4,38.3,30.12,West,270,0.0,2.0,89,0.00,,,0.00,meteohub,2013-10-28 02:32:00,
2013-10-27 22:37:00,41.4,38.7,30.12,West,270,0.0,2.0,90,0.00,,,0.00,meteohub,2013-10-28 02:37:00,
2013-10-27 22:42:00,41.2,38.1,30.12,West,270,0.0,2.0,89,0.00,,,0.00,meteohub,2013-10-28 02:42:00,
2013-10-27 22:47:00,41.2,38.5,30.12,West,270,0.0,1.0,90,0.00,,,0.00,meteohub,2013-10-28 02:47:00,
2013-10-27 22:52:00,41.2,38.5,30.12,West,270,1.0,1.0,90,0.00,,,0.00,meteohub,2013-10-28 02:52:00,
2013-10-27 22:57:00,41.2,38.5,30.12,West,270,0.0,2.0,90,0.00,,,0.00,meteohub,2013-10-28 02:57:00,
2013-10-27 23:03:00,41.2,38.5,30.12,West,270,0.0,2.0,90,0.00,,,0.00,meteohub,2013-10-28 03:03:00,
2013-10-27 23:09:00,41.0,38.3,30.12,West,270,0.0,2.0,90,0.00,,,0.00,meteohub,2013-10-28 03:09:00,
2013-10-27 23:15:00,40.8,38.5,30.12,West,270,0.0,1.0,91,0.00,,,0.00,meteohub,2013-10-28 03:15:00,
2013-10-27 23:21:00,40.8,38.5,30.12,West,270,1.0,1.0,91,0.00,,,0.00,meteohub,2013-10-28 03:21:00,
2013-10-27 23:27:00,40.6,38.3,30.12,West,270,0.0,1.0,91,0.00,,,0.00,meteohub,2013-10-28 03:27:00,
2013-10-27 23:32:00,40.5,38.1,30.12,West,270,0.0,1.0,91,0.00,,,0.00,meteohub,2013-10-28 03:32:00,
2013-10-27 23:37:00,40.5,38.1,30.12,West,270,0.0,1.0,91,0.00,,,0.00,meteohub,2013-10-28 03:37:00,
2013-10-27 23:42:00,40.5,38.1,30.12,West,270,0.0,0.0,91,0.00,,,0.00,meteohub,2013-10-28 03:42:00,
2013-10-27 23:49:00,40.5,38.3,30.12,West,270,0.0,0.0,92,0.00,,,0.00,meteohub,2013-10-28 03:49:00,
2013-10-27 23:55:00,40.3,38.1,30.12,West,270,0.0,0.0,92,0.00,,,0.00,meteohub,2013-10-28 03:55:00,